sensor_id;sensor_type;location;lat;lon;timestamp;pressure;altitude;pressure_sealevel;temperature;humidity
44453;BME280;30155;52.164;21.236;2023-03-20T00:00:06;100533.41;;;3.55;62.70
44453;BME280;30155;52.164;21.236;2023-03-20T00:05:00;100531.05;;;3.47;62.56
44453;BME280;30155;52.164;21.236;2023-03-20T00:09:53;100528.02;;;3.40;62.84
44453;BME280;30155;52.164;21.236;2023-03-20T00:14:48;100523.09;;;3.33;63.05
44453;BME280;30155;52.164;21.236;2023-03-20T00:19:41;100518.05;;;3.32;63.27
44453;BME280;30155;52.164;21.236;2023-03-20T00:24:34;100515.96;;;3.31;63.28
44453;BME280;30155;52.164;21.236;2023-03-20T00:29:28;100513.77;;;3.28;63.42
44453;BME280;30155;52.164;21.236;2023-03-20T00:34:24;100514.05;;;3.31;63.34
44453;BME280;30155;52.164;21.236;2023-03-20T00:39:19;100516.92;;;3.34;63.39
44453;BME280;30155;52.164;21.236;2023-03-20T00:49:19;100508.09;;;3.36;63.43
44453;BME280;30155;52.164;21.236;2023-03-20T00:54:16;100502.16;;;3.33;63.72
44453;BME280;30155;52.164;21.236;2023-03-20T00:59:15;100498.46;;;3.26;63.54
44453;BME280;30155;52.164;21.236;2023-03-20T01:04:14;100497.79;;;3.23;63.76
44453;BME280;30155;52.164;21.236;2023-03-20T01:09:08;100496.45;;;3.19;63.74
44453;BME280;30155;52.164;21.236;2023-03-20T01:14:01;100489.39;;;3.15;63.98
44453;BME280;30155;52.164;21.236;2023-03-20T01:18:54;100489.92;;;3.12;63.95
44453;BME280;30155;52.164;21.236;2023-03-20T01:23:48;100491.92;;;3.02;64.08
44453;BME280;30155;52.164;21.236;2023-03-20T01:28:41;100491.65;;;2.96;64.33
44453;BME280;30155;52.164;21.236;2023-03-20T01:33:34;100491.31;;;2.92;64.30
44453;BME280;30155;52.164;21.236;2023-03-20T01:38:27;100490.05;;;2.87;64.46
44453;BME280;30155;52.164;21.236;2023-03-20T01:43:22;100489.81;;;2.85;64.56
44453;BME280;30155;52.164;21.236;2023-03-20T01:48:16;100491.66;;;2.81;64.96
44453;BME280;30155;52.164;21.236;2023-03-20T01:53:13;100487.24;;;2.78;64.89
44453;BME280;30155;52.164;21.236;2023-03-20T01:58:20;100481.57;;;2.77;64.83
44453;BME280;30155;52.164;21.236;2023-03-20T02:03:14;100475.66;;;2.75;65.29
44453;BME280;30155;52.164;21.236;2023-03-20T02:08:29;100473.71;;;2.74;65.07
44453;BME280;30155;52.164;21.236;2023-03-20T02:13:26;100475.54;;;2.68;64.97
44453;BME280;30155;52.164;21.236;2023-03-20T02:18:22;100470.85;;;2.66;65.24
44453;BME280;30155;52.164;21.236;2023-03-20T02:39:44;100456.66;;;2.59;65.48
44453;BME280;30155;52.164;21.236;2023-03-20T02:45:56;100456.08;;;2.54;65.55
44453;BME280;30155;52.164;21.236;2023-03-20T02:50:36;100448.50;;;2.53;65.74
44453;BME280;30155;52.164;21.236;2023-03-20T03:00:35;100446.50;;;2.43;65.88
44453;BME280;30155;52.164;21.236;2023-03-20T03:05:37;100444.65;;;2.39;66.13
44453;BME280;30155;52.164;21.236;2023-03-20T03:10:40;100438.75;;;2.38;66.26
44453;BME280;30155;52.164;21.236;2023-03-20T03:15:37;100442.96;;;2.36;66.24
44453;BME280;30155;52.164;21.236;2023-03-20T03:20:42;100444.60;;;2.35;66.26
44453;BME280;30155;52.164;21.236;2023-03-20T03:25:39;100442.80;;;2.29;66.32
44453;BME280;30155;52.164;21.236;2023-03-20T03:30:36;100442.23;;;2.27;66.58
44453;BME280;30155;52.164;21.236;2023-03-20T03:35:30;100443.79;;;2.28;66.68
44453;BME280;30155;52.164;21.236;2023-03-20T03:40:31;100441.36;;;2.24;66.55
44453;BME280;30155;52.164;21.236;2023-03-20T03:45:37;100439.60;;;2.19;66.49
44453;BME280;30155;52.164;21.236;2023-03-20T03:50:41;100435.52;;;2.15;66.75
44453;BME280;30155;52.164;21.236;2023-03-20T03:55:43;100429.96;;;2.17;67.09
44453;BME280;30155;52.164;21.236;2023-03-20T04:00:41;100425.93;;;2.19;66.86
44453;BME280;30155;52.164;21.236;2023-03-20T04:05:40;100422.15;;;2.19;67.09
44453;BME280;30155;52.164;21.236;2023-03-20T04:10:34;100416.98;;;2.17;67.15
44453;BME280;30155;52.164;21.236;2023-03-20T04:15:27;100417.56;;;2.15;67.19
44453;BME280;30155;52.164;21.236;2023-03-20T04:20:20;100423.73;;;2.16;67.19
44453;BME280;30155;52.164;21.236;2023-03-20T04:25:19;100427.84;;;2.16;67.30
44453;BME280;30155;52.164;21.236;2023-03-20T04:30:16;100430.42;;;2.12;67.09
44453;BME280;30155;52.164;21.236;2023-03-20T04:35:28;100430.73;;;2.08;67.67
44453;BME280;30155;52.164;21.236;2023-03-20T04:40:26;100425.85;;;2.06;67.42
44453;BME280;30155;52.164;21.236;2023-03-20T04:45:20;100420.59;;;2.04;67.55
44453;BME280;30155;52.164;21.236;2023-03-20T04:50:13;100424.39;;;2.04;67.73
44453;BME280;30155;52.164;21.236;2023-03-20T04:55:07;100430.27;;;2.02;67.71
44453;BME280;30155;52.164;21.236;2023-03-20T05:00:00;100430.25;;;2.02;67.46
44453;BME280;30155;52.164;21.236;2023-03-20T05:04:55;100431.29;;;2.05;67.67
44453;BME280;30155;52.164;21.236;2023-03-20T05:09:48;100431.31;;;2.06;67.73
44453;BME280;30155;52.164;21.236;2023-03-20T05:14:42;100433.85;;;2.13;68.04
44453;BME280;30155;52.164;21.236;2023-03-20T05:20:01;100442.44;;;2.21;67.69
44453;BME280;30155;52.164;21.236;2023-03-20T05:25:14;100439.32;;;2.31;67.61
44453;BME280;30155;52.164;21.236;2023-03-20T05:30:24;100436.69;;;2.45;67.66
44453;BME280;30155;52.164;21.236;2023-03-20T05:35:36;100439.91;;;2.56;67.63
44453;BME280;30155;52.164;21.236;2023-03-20T05:40:58;100440.61;;;2.68;67.89
44453;BME280;30155;52.164;21.236;2023-03-20T05:46:03;100437.89;;;2.80;67.54
44453;BME280;30155;52.164;21.236;2023-03-20T05:51:15;100439.67;;;2.93;67.69
44453;BME280;30155;52.164;21.236;2023-03-20T05:56:31;100439.57;;;3.07;67.23
44453;BME280;30155;52.164;21.236;2023-03-20T06:02:03;100443.18;;;3.24;67.06
44453;BME280;30155;52.164;21.236;2023-03-20T06:06:58;100440.64;;;3.41;67.44
44453;BME280;30155;52.164;21.236;2023-03-20T06:11:51;100438.11;;;3.59;67.11
44453;BME280;30155;52.164;21.236;2023-03-20T06:16:44;100439.25;;;3.79;67.16
44453;BME280;30155;52.164;21.236;2023-03-20T06:21:38;100443.56;;;4.06;66.88
44453;BME280;30155;52.164;21.236;2023-03-20T06:26:33;100442.52;;;4.32;66.70
44453;BME280;30155;52.164;21.236;2023-03-20T06:31:29;100447.66;;;4.55;66.74
44453;BME280;30155;52.164;21.236;2023-03-20T06:36:23;100449.68;;;4.78;66.70
44453;BME280;30155;52.164;21.236;2023-03-20T06:41:20;100448.89;;;5.04;66.61
44453;BME280;30155;52.164;21.236;2023-03-20T06:46:25;100447.52;;;5.29;66.55
44453;BME280;30155;52.164;21.236;2023-03-20T06:51:18;100438.44;;;5.50;66.30
44453;BME280;30155;52.164;21.236;2023-03-20T06:56:15;100435.11;;;5.65;66.40
44453;BME280;30155;52.164;21.236;2023-03-20T07:01:10;100435.10;;;6.08;65.44
44453;BME280;30155;52.164;21.236;2023-03-20T07:06:04;100438.03;;;6.72;64.64
44453;BME280;30155;52.164;21.236;2023-03-20T07:10:57;100429.52;;;7.34;63.89
44453;BME280;30155;52.164;21.236;2023-03-20T07:15:50;100433.42;;;7.52;63.30
44453;BME280;30155;52.164;21.236;2023-03-20T07:20:59;100427.82;;;7.78;62.92
44453;BME280;30155;52.164;21.236;2023-03-20T07:25:54;100426.89;;;8.05;62.45
44453;BME280;30155;52.164;21.236;2023-03-20T07:30:47;100433.12;;;8.20;61.93
44453;BME280;30155;52.164;21.236;2023-03-20T07:35:42;100425.46;;;9.25;60.64
44453;BME280;30155;52.164;21.236;2023-03-20T07:40:35;100413.98;;;11.21;58.13
44453;BME280;30155;52.164;21.236;2023-03-20T07:45:33;100415.20;;;12.37;56.56
44453;BME280;30155;52.164;21.236;2023-03-20T07:50:26;100411.94;;;14.48;54.14
44453;BME280;30155;52.164;21.236;2023-03-20T07:55:19;100410.86;;;17.47;51.06
44453;BME280;30155;52.164;21.236;2023-03-20T08:00:13;100410.27;;;20.18;48.10
44453;BME280;30155;52.164;21.236;2023-03-20T08:05:08;100402.54;;;21.21;45.91
44453;BME280;30155;52.164;21.236;2023-03-20T08:10:02;100403.09;;;21.54;44.57
44453;BME280;30155;52.164;21.236;2023-03-20T08:14:55;100407.16;;;20.56;44.37
44453;BME280;30155;52.164;21.236;2023-03-20T08:19:48;100400.13;;;21.06;42.15
44453;BME280;30155;52.164;21.236;2023-03-20T08:24:41;100394.23;;;22.69;40.69
44453;BME280;30155;52.164;21.236;2023-03-20T08:29:34;100393.54;;;22.78;39.73
44453;BME280;30155;52.164;21.236;2023-03-20T08:34:27;100389.20;;;23.47;38.39
44453;BME280;30155;52.164;21.236;2023-03-20T08:39:20;100388.63;;;22.54;38.84
44453;BME280;30155;52.164;21.236;2023-03-20T08:44:12;100387.16;;;21.96;39.00
44453;BME280;30155;52.164;21.236;2023-03-20T08:49:05;100392.17;;;20.74;39.41
44453;BME280;30155;52.164;21.236;2023-03-20T08:53:58;100395.54;;;20.56;39.21
44453;BME280;30155;52.164;21.236;2023-03-20T08:58:51;100395.23;;;20.04;39.11
44453;BME280;30155;52.164;21.236;2023-03-20T09:03:46;100393.26;;;19.43;39.42
44453;BME280;30155;52.164;21.236;2023-03-20T09:08:39;100397.66;;;19.13;39.57
44453;BME280;30155;52.164;21.236;2023-03-20T09:13:32;100400.95;;;18.76;40.11
44453;BME280;30155;52.164;21.236;2023-03-20T09:18:26;100403.91;;;18.43;40.34
44453;BME280;30155;52.164;21.236;2023-03-20T09:23:19;100404.58;;;18.44;40.38
44453;BME280;30155;52.164;21.236;2023-03-20T09:28:12;100397.23;;;19.09;39.45
44453;BME280;30155;52.164;21.236;2023-03-20T09:33:05;100390.73;;;18.94;38.97
44453;BME280;30155;52.164;21.236;2023-03-20T09:37:58;100389.66;;;18.78;38.89
44453;BME280;30155;52.164;21.236;2023-03-20T09:43:05;100383.43;;;20.14;37.78
44453;BME280;30155;52.164;21.236;2023-03-20T09:53:10;100382.05;;;21.12;36.75
44453;BME280;30155;52.164;21.236;2023-03-20T09:58:19;100373.05;;;21.50;36.09
44453;BME280;30155;52.164;21.236;2023-03-20T10:03:31;100374.44;;;22.98;35.11
44453;BME280;30155;52.164;21.236;2023-03-20T10:08:33;100365.96;;;26.17;32.70
44453;BME280;30155;52.164;21.236;2023-03-20T10:18:33;100360.95;;;29.75;28.96
44453;BME280;30155;52.164;21.236;2023-03-20T10:23:41;100363.80;;;29.92;28.20
44453;BME280;30155;52.164;21.236;2023-03-20T10:28:54;100368.30;;;27.64;28.58
44453;BME280;30155;52.164;21.236;2023-03-20T10:34:04;100365.10;;;26.58;29.72
44453;BME280;30155;52.164;21.236;2023-03-20T10:44:40;100351.71;;;26.55;29.13
44453;BME280;30155;52.164;21.236;2023-03-20T10:49:46;100353.72;;;25.85;29.51
44453;BME280;30155;52.164;21.236;2023-03-20T10:54:48;100350.86;;;25.14;29.81
44453;BME280;30155;52.164;21.236;2023-03-20T10:59:46;100351.52;;;24.82;29.93
44453;BME280;30155;52.164;21.236;2023-03-20T11:04:40;100358.12;;;24.11;30.63
44453;BME280;30155;52.164;21.236;2023-03-20T11:09:34;100356.09;;;23.09;31.46
44453;BME280;30155;52.164;21.236;2023-03-20T11:14:36;100353.02;;;22.42;32.22
44453;BME280;30155;52.164;21.236;2023-03-20T11:19:35;100354.80;;;21.47;32.45
44453;BME280;30155;52.164;21.236;2023-03-20T11:24:41;100363.39;;;20.59;33.35
44453;BME280;30155;52.164;21.236;2023-03-20T11:29:36;100364.48;;;19.89;33.84
44453;BME280;30155;52.164;21.236;2023-03-20T11:34:36;100358.91;;;19.60;34.31
44453;BME280;30155;52.164;21.236;2023-03-20T11:39:31;100350.83;;;19.80;34.75
44453;BME280;30155;52.164;21.236;2023-03-20T11:44:31;100348.33;;;20.27;34.54
44453;BME280;30155;52.164;21.236;2023-03-20T11:49:25;100337.55;;;20.86;34.32
44453;BME280;30155;52.164;21.236;2023-03-20T11:54:21;100332.30;;;22.38;33.91
44453;BME280;30155;52.164;21.236;2023-03-20T11:59:15;100320.00;;;23.01;32.72
44453;BME280;30155;52.164;21.236;2023-03-20T12:04:28;100327.88;;;22.30;33.09
44453;BME280;30155;52.164;21.236;2023-03-20T12:09:47;100319.69;;;21.58;33.87
44453;BME280;30155;52.164;21.236;2023-03-20T12:14:53;100316.92;;;21.04;35.17
44453;BME280;30155;52.164;21.236;2023-03-20T12:19:52;100323.66;;;20.15;35.58
44453;BME280;30155;52.164;21.236;2023-03-20T12:30:38;100318.64;;;18.74;36.65
44453;BME280;30155;52.164;21.236;2023-03-20T12:35:38;100321.74;;;18.37;37.24
44453;BME280;30155;52.164;21.236;2023-03-20T12:40:41;100321.41;;;18.11;37.91
44453;BME280;30155;52.164;21.236;2023-03-20T12:45:39;100318.11;;;17.81;38.34
44453;BME280;30155;52.164;21.236;2023-03-20T12:50:38;100316.61;;;17.47;38.69
44453;BME280;30155;52.164;21.236;2023-03-20T12:55:42;100313.25;;;17.29;39.34
44453;BME280;30155;52.164;21.236;2023-03-20T13:01:01;100313.34;;;17.34;39.82
44453;BME280;30155;52.164;21.236;2023-03-20T13:21:37;100305.40;;;16.83;40.73
44453;BME280;30155;52.164;21.236;2023-03-20T13:26:38;100305.67;;;16.63;40.56
44453;BME280;30155;52.164;21.236;2023-03-20T13:31:56;100304.79;;;16.52;41.13
44453;BME280;30155;52.164;21.236;2023-03-20T13:37:00;100302.77;;;16.32;41.01
44453;BME280;30155;52.164;21.236;2023-03-20T13:42:17;100304.86;;;16.19;41.49
44453;BME280;30155;52.164;21.236;2023-03-20T13:47:17;100304.69;;;16.07;41.83
44453;BME280;30155;52.164;21.236;2023-03-20T13:52:20;100299.35;;;15.98;42.19
44453;BME280;30155;52.164;21.236;2023-03-20T14:07:33;100300.01;;;15.35;44.38
44453;BME280;30155;52.164;21.236;2023-03-20T14:12:31;100300.98;;;15.03;45.33
44453;BME280;30155;52.164;21.236;2023-03-20T14:17:27;100298.84;;;14.85;46.21
44453;BME280;30155;52.164;21.236;2023-03-20T14:22:25;100298.94;;;14.71;47.17
44453;BME280;30155;52.164;21.236;2023-03-20T14:27:20;100303.16;;;14.65;47.95
44453;BME280;30155;52.164;21.236;2023-03-20T14:32:33;100299.81;;;14.70;48.60
44453;BME280;30155;52.164;21.236;2023-03-20T14:37:44;100305.05;;;14.70;49.42
44453;BME280;30155;52.164;21.236;2023-03-20T14:42:56;100304.73;;;14.66;50.03
44453;BME280;30155;52.164;21.236;2023-03-20T14:48:03;100305.10;;;14.61;50.72
44453;BME280;30155;52.164;21.236;2023-03-20T14:53:18;100311.58;;;14.52;51.29
44453;BME280;30155;52.164;21.236;2023-03-20T15:03:25;100312.62;;;14.15;54.07
44453;BME280;30155;52.164;21.236;2023-03-20T15:08:30;100313.87;;;14.09;54.69
44453;BME280;30155;52.164;21.236;2023-03-20T15:13:24;100312.16;;;14.02;54.93
44453;BME280;30155;52.164;21.236;2023-03-20T15:18:19;100309.22;;;13.94;55.35
44453;BME280;30155;52.164;21.236;2023-03-20T15:23:14;100312.21;;;13.83;56.05
44453;BME280;30155;52.164;21.236;2023-03-20T15:28:11;100311.90;;;13.69;56.85
44453;BME280;30155;52.164;21.236;2023-03-20T15:33:15;100308.42;;;13.65;57.46
44453;BME280;30155;52.164;21.236;2023-03-20T15:38:12;100309.82;;;13.63;58.11
44453;BME280;30155;52.164;21.236;2023-03-20T15:43:24;100312.81;;;13.54;58.50
44453;BME280;30155;52.164;21.236;2023-03-20T15:48:20;100319.96;;;13.40;59.13
44453;BME280;30155;52.164;21.236;2023-03-20T15:53:39;100323.95;;;13.28;59.57
44453;BME280;30155;52.164;21.236;2023-03-20T15:58:36;100330.38;;;13.13;60.32
44453;BME280;30155;52.164;21.236;2023-03-20T16:03:29;100332.10;;;12.99;61.11
44453;BME280;30155;52.164;21.236;2023-03-20T16:08:28;100335.92;;;12.88;61.69
44453;BME280;30155;52.164;21.236;2023-03-20T16:13:22;100340.77;;;12.81;62.19
44453;BME280;30155;52.164;21.236;2023-03-20T16:18:16;100343.02;;;12.71;62.50
44453;BME280;30155;52.164;21.236;2023-03-20T16:23:22;100343.02;;;12.66;62.59
44453;BME280;30155;52.164;21.236;2023-03-20T16:28:19;100343.67;;;12.56;62.43
44453;BME280;30155;52.164;21.236;2023-03-20T16:33:14;100350.27;;;12.48;62.45
44453;BME280;30155;52.164;21.236;2023-03-20T16:38:31;100346.42;;;12.41;62.54
44453;BME280;30155;52.164;21.236;2023-03-20T16:43:31;100337.34;;;12.33;62.57
44453;BME280;30155;52.164;21.236;2023-03-20T16:48:32;100332.62;;;12.25;62.71
44453;BME280;30155;52.164;21.236;2023-03-20T16:53:35;100324.76;;;12.15;62.88
44453;BME280;30155;52.164;21.236;2023-03-20T16:58:30;100330.11;;;12.07;62.94
44453;BME280;30155;52.164;21.236;2023-03-20T17:03:33;100335.12;;;12.01;63.18
44453;BME280;30155;52.164;21.236;2023-03-20T17:08:52;100333.35;;;11.96;63.35
44453;BME280;30155;52.164;21.236;2023-03-20T17:13:46;100340.95;;;11.90;63.76
44453;BME280;30155;52.164;21.236;2023-03-20T17:18:40;100342.42;;;11.79;64.41
44453;BME280;30155;52.164;21.236;2023-03-20T17:23:33;100353.30;;;11.69;64.53
44453;BME280;30155;52.164;21.236;2023-03-20T17:28:32;100358.61;;;11.57;65.11
44453;BME280;30155;52.164;21.236;2023-03-20T17:33:26;100358.55;;;11.47;65.37
44453;BME280;30155;52.164;21.236;2023-03-20T17:38:20;100363.68;;;11.39;65.58
44453;BME280;30155;52.164;21.236;2023-03-20T17:43:15;100364.15;;;11.33;65.87
44453;BME280;30155;52.164;21.236;2023-03-20T17:48:13;100353.34;;;11.27;66.14
44453;BME280;30155;52.164;21.236;2023-03-20T17:53:15;100352.76;;;11.19;66.31
44453;BME280;30155;52.164;21.236;2023-03-20T17:58:13;100349.89;;;11.08;66.21
44453;BME280;30155;52.164;21.236;2023-03-20T18:03:06;100345.91;;;10.93;66.64
44453;BME280;30155;52.164;21.236;2023-03-20T18:08:00;100351.61;;;10.72;66.62
44453;BME280;30155;52.164;21.236;2023-03-20T18:12:52;100351.02;;;10.50;66.49
44453;BME280;30155;52.164;21.236;2023-03-20T18:17:45;100346.09;;;10.29;67.16
44453;BME280;30155;52.164;21.236;2023-03-20T18:22:38;100344.47;;;10.12;67.25
44453;BME280;30155;52.164;21.236;2023-03-20T18:27:31;100347.84;;;9.91;66.78
44453;BME280;30155;52.164;21.236;2023-03-20T18:32:24;100352.56;;;9.71;66.66
44453;BME280;30155;52.164;21.236;2023-03-20T18:37:17;100360.82;;;9.56;66.97
44453;BME280;30155;52.164;21.236;2023-03-20T18:42:12;100357.15;;;9.42;66.99
44453;BME280;30155;52.164;21.236;2023-03-20T18:47:05;100357.68;;;9.32;67.40
44453;BME280;30155;52.164;21.236;2023-03-20T18:51:58;100349.27;;;9.25;68.00
44453;BME280;30155;52.164;21.236;2023-03-20T18:56:50;100357.73;;;9.15;67.62
44453;BME280;30155;52.164;21.236;2023-03-20T19:01:44;100359.75;;;9.01;68.22
44453;BME280;30155;52.164;21.236;2023-03-20T19:06:39;100359.29;;;8.94;68.74
44453;BME280;30155;52.164;21.236;2023-03-20T19:11:32;100359.85;;;8.87;68.94
44453;BME280;30155;52.164;21.236;2023-03-20T19:16:27;100354.58;;;8.82;69.09
44453;BME280;30155;52.164;21.236;2023-03-20T19:21:21;100353.05;;;8.74;68.92
44453;BME280;30155;52.164;21.236;2023-03-20T19:26:18;100353.09;;;8.67;69.13
44453;BME280;30155;52.164;21.236;2023-03-20T19:31:11;100360.82;;;8.65;69.56
44453;BME280;30155;52.164;21.236;2023-03-20T19:36:06;100363.48;;;8.68;69.61
44453;BME280;30155;52.164;21.236;2023-03-20T19:40:59;100369.65;;;8.66;69.83
44453;BME280;30155;52.164;21.236;2023-03-20T19:45:54;100365.04;;;8.69;70.18
44453;BME280;30155;52.164;21.236;2023-03-20T19:50:49;100361.11;;;8.71;70.40
44453;BME280;30155;52.164;21.236;2023-03-20T19:55:43;100359.35;;;8.70;70.26
44453;BME280;30155;52.164;21.236;2023-03-20T20:00:38;100363.98;;;8.58;69.77
44453;BME280;30155;52.164;21.236;2023-03-20T20:05:52;100365.13;;;8.47;70.10
44453;BME280;30155;52.164;21.236;2023-03-20T20:10:50;100368.86;;;8.36;70.13
44453;BME280;30155;52.164;21.236;2023-03-20T20:15:44;100361.16;;;8.23;70.12
44453;BME280;30155;52.164;21.236;2023-03-20T20:20:37;100360.55;;;8.18;70.71
44453;BME280;30155;52.164;21.236;2023-03-20T20:25:51;100358.80;;;8.17;70.97
44453;BME280;30155;52.164;21.236;2023-03-20T20:30:47;100357.20;;;8.15;71.13
44453;BME280;30155;52.164;21.236;2023-03-20T20:35:40;100357.19;;;8.14;71.10
44453;BME280;30155;52.164;21.236;2023-03-20T20:40:53;100360.52;;;8.17;71.35
44453;BME280;30155;52.164;21.236;2023-03-20T20:45:48;100364.52;;;8.26;71.78
44453;BME280;30155;52.164;21.236;2023-03-20T20:50:43;100378.20;;;8.37;71.94
44453;BME280;30155;52.164;21.236;2023-03-20T20:55:37;100375.61;;;8.52;72.46
44453;BME280;30155;52.164;21.236;2023-03-20T21:00:30;100377.16;;;8.69;72.75
44453;BME280;30155;52.164;21.236;2023-03-20T21:05:41;100377.12;;;8.86;73.07
44453;BME280;30155;52.164;21.236;2023-03-20T21:10:34;100373.34;;;8.97;73.46
44453;BME280;30155;52.164;21.236;2023-03-20T21:15:27;100372.48;;;9.07;73.79
44453;BME280;30155;52.164;21.236;2023-03-20T21:20:20;100373.48;;;9.15;73.90
44453;BME280;30155;52.164;21.236;2023-03-20T21:25:14;100377.20;;;9.20;74.05
44453;BME280;30155;52.164;21.236;2023-03-20T21:30:10;100371.70;;;9.23;74.18
44453;BME280;30155;52.164;21.236;2023-03-20T21:35:04;100374.83;;;9.23;74.39
44453;BME280;30155;52.164;21.236;2023-03-20T21:39:59;100374.48;;;9.23;74.25
44453;BME280;30155;52.164;21.236;2023-03-20T21:44:52;100376.93;;;9.25;74.55
44453;BME280;30155;52.164;21.236;2023-03-20T21:50:10;100376.58;;;9.25;74.59
44453;BME280;30155;52.164;21.236;2023-03-20T21:55:23;100373.95;;;9.22;74.62
44453;BME280;30155;52.164;21.236;2023-03-20T22:00:36;100367.02;;;9.22;74.93
44453;BME280;30155;52.164;21.236;2023-03-20T22:05:48;100370.64;;;9.20;74.83
44453;BME280;30155;52.164;21.236;2023-03-20T22:11:02;100366.64;;;9.20;75.20
44453;BME280;30155;52.164;21.236;2023-03-20T22:16:15;100363.48;;;9.16;75.32
44453;BME280;30155;52.164;21.236;2023-03-20T22:21:30;100360.63;;;9.11;75.21
44453;BME280;30155;52.164;21.236;2023-03-20T22:26:44;100356.90;;;9.05;75.38
44453;BME280;30155;52.164;21.236;2023-03-20T22:31:58;100358.50;;;8.99;75.53
44453;BME280;30155;52.164;21.236;2023-03-20T22:37:11;100365.27;;;8.91;75.49
44453;BME280;30155;52.164;21.236;2023-03-20T22:42:24;100360.70;;;8.87;75.75
44453;BME280;30155;52.164;21.236;2023-03-20T22:47:37;100364.52;;;8.87;75.95
44453;BME280;30155;52.164;21.236;2023-03-20T22:52:31;100365.02;;;8.86;75.93
44453;BME280;30155;52.164;21.236;2023-03-20T22:57:40;100364.52;;;8.87;76.16
44453;BME280;30155;52.164;21.236;2023-03-20T23:02:50;100363.85;;;8.89;76.16
44453;BME280;30155;52.164;21.236;2023-03-20T23:07:50;100365.26;;;8.90;76.26
44453;BME280;30155;52.164;21.236;2023-03-20T23:12:43;100363.84;;;8.88;76.26
44453;BME280;30155;52.164;21.236;2023-03-20T23:17:36;100360.33;;;8.85;76.41
44453;BME280;30155;52.164;21.236;2023-03-20T23:22:29;100359.96;;;8.84;76.42
44453;BME280;30155;52.164;21.236;2023-03-20T23:27:22;100362.02;;;8.83;76.44
44453;BME280;30155;52.164;21.236;2023-03-20T23:32:14;100361.12;;;8.81;76.53
44453;BME280;30155;52.164;21.236;2023-03-20T23:37:07;100365.88;;;8.77;76.39
44453;BME280;30155;52.164;21.236;2023-03-20T23:42:00;100364.03;;;8.70;76.54
44453;BME280;30155;52.164;21.236;2023-03-20T23:47:07;100366.63;;;8.62;76.45
44453;BME280;30155;52.164;21.236;2023-03-20T23:52:11;100361.52;;;8.56;76.73
44453;BME280;30155;52.164;21.236;2023-03-20T23:57:04;100359.84;;;8.50;76.70
